createdAt,value
2019-04-25T00:02:26.437Z,10.50
2019-04-25T00:04:56.001Z,9.93
2019-04-25T00:07:25.757Z,10.00
2019-04-25T00:09:55.639Z,10.57
2019-04-25T00:12:25.442Z,9.17
2019-04-25T00:14:56.602Z,10.23
2019-04-25T00:17:27.029Z,10.03
2019-04-25T00:19:56.711Z,9.97
2019-04-25T00:22:31.727Z,9.67
2019-04-25T00:25:14.707Z,9.77
2019-04-25T00:27:34.647Z,10.47
2019-04-25T00:30:06.383Z,9.90
2019-04-25T00:32:36.080Z,10.87
2019-04-25T00:35:06.412Z,10.50
2019-04-25T00:37:36.396Z,10.33
2019-04-25T00:40:08.092Z,10.03
2019-04-25T00:42:37.762Z,9.77
2019-04-25T00:45:08.196Z,10.13
2019-04-25T00:47:38.738Z,9.93
2019-04-25T00:50:08.344Z,10.10
2019-04-25T00:52:38.112Z,9.80
2019-04-25T00:55:07.768Z,9.67
2019-04-25T00:57:38.618Z,9.77
2019-04-25T01:00:12.869Z,9.47
2019-04-25T01:02:44.195Z,9.73
2019-04-25T01:05:13.839Z,10.70
2019-04-25T01:07:44.272Z,10.40
2019-04-25T01:10:14.779Z,10.20
2019-04-25T01:12:44.676Z,10.57
2019-04-25T01:15:14.656Z,9.10
2019-04-25T01:17:45.342Z,9.00
2019-04-25T01:20:17.557Z,9.07
2019-04-25T01:22:49.276Z,10.23
2019-04-25T01:25:20.018Z,9.97
2019-04-25T01:27:49.912Z,9.87
2019-04-25T01:30:21.322Z,9.63
2019-04-25T01:32:51.040Z,9.67
2019-04-25T01:35:39.815Z,9.60
2019-04-25T01:38:13.994Z,9.87
2019-04-25T01:40:57.370Z,8.93
2019-04-25T01:43:29.435Z,8.63
2019-04-25T01:45:59.388Z,9.50
2019-04-25T01:48:29.047Z,9.83
2019-04-25T01:50:58.736Z,9.10
2019-04-25T01:53:28.371Z,10.07
2019-04-25T01:56:05.013Z,9.37
2019-04-25T01:58:29.222Z,8.97
2019-04-25T02:00:58.888Z,9.40
2019-04-25T02:03:28.630Z,9.70
2019-04-25T02:05:59.098Z,9.60
2019-04-25T02:08:28.870Z,9.47
2019-04-25T02:11:06.132Z,8.80
2019-04-25T02:13:35.909Z,9.67
2019-04-25T02:16:06.425Z,9.57
2019-04-25T02:18:36.046Z,10.37
2019-04-25T02:21:06.077Z,9.63
2019-04-25T02:23:35.753Z,10.80
2019-04-25T02:26:15.528Z,9.80
2019-04-25T02:28:36.768Z,9.87
2019-04-25T02:31:08.817Z,10.03
2019-04-25T02:33:37.751Z,10.10
2019-04-25T02:36:08.667Z,10.67
2019-04-25T02:38:38.619Z,10.03
2019-04-25T02:41:09.128Z,11.30
2019-04-25T02:43:39.047Z,10.73
2019-04-25T02:46:15.223Z,10.83
2019-04-25T02:48:52.538Z,9.60
2019-04-25T02:51:34.798Z,10.73
2019-04-25T02:54:07.534Z,10.67
2019-04-25T02:56:38.704Z,10.97
2019-04-25T02:59:08.918Z,10.33
2019-04-25T03:01:38.069Z,10.07
2019-04-25T03:04:11.173Z,9.83
2019-04-25T03:06:39.116Z,11.23
2019-04-25T03:09:10.716Z,10.50
2019-04-25T03:11:40.674Z,10.60
2019-04-25T03:14:10.491Z,9.90
2019-04-25T03:16:40.300Z,10.43
2019-04-25T03:19:13.969Z,10.80
2019-04-25T03:21:55.006Z,10.77
2019-04-25T03:24:25.251Z,10.53
2019-04-25T03:26:55.094Z,10.50
2019-04-25T03:29:24.884Z,10.20
2019-04-25T03:31:55.987Z,11.30
2019-04-25T03:34:25.763Z,11.10
2019-04-25T03:36:55.562Z,11.43
2019-04-25T03:39:27.043Z,11.30
2019-04-25T03:41:56.670Z,10.83
2019-04-25T03:44:26.287Z,10.60
2019-04-25T03:46:55.876Z,11.30
2019-04-25T03:49:25.609Z,11.40
2019-04-25T03:51:55.338Z,11.23
2019-04-25T03:54:25.017Z,10.87
2019-04-25T03:56:56.225Z,11.27
2019-04-25T03:59:25.948Z,10.70
2019-04-25T04:01:55.638Z,12.07
2019-04-25T04:04:25.290Z,12.00
2019-04-25T04:06:54.967Z,11.60
2019-04-25T04:09:24.550Z,12.67
2019-04-25T04:11:54.194Z,11.40
2019-04-25T04:14:24.075Z,11.67
2019-04-25T04:17:10.906Z,12.10
2019-04-25T04:19:45.317Z,11.83
2019-04-25T04:22:25.562Z,11.13
2019-04-25T04:24:56.921Z,12.07
2019-04-25T04:27:26.674Z,12.07
2019-04-25T04:29:56.317Z,12.37
2019-04-25T04:32:25.926Z,11.70
2019-04-25T04:34:55.516Z,12.50
2019-04-25T04:37:25.180Z,12.33
2019-04-25T04:39:54.854Z,12.33
2019-04-25T04:42:24.499Z,11.93
2019-04-25T04:44:55.248Z,12.03
2019-04-25T04:47:24.908Z,12.67
2019-04-25T04:49:54.636Z,12.23
2019-04-25T04:52:25.810Z,12.33
2019-04-25T04:55:05.209Z,12.00
2019-04-25T04:57:32.883Z,12.53
2019-04-25T04:59:58.317Z,12.43
2019-04-25T05:02:38.575Z,11.70
2019-04-25T05:05:30.491Z,12.10
2019-04-25T05:08:01.354Z,12.13
2019-04-25T05:10:31.097Z,12.93
2019-04-25T05:13:00.688Z,12.50
2019-04-25T05:15:30.302Z,13.20
2019-04-25T05:17:59.946Z,12.90
2019-04-25T05:20:29.537Z,12.87
2019-04-25T05:22:59.141Z,13.37
2019-04-25T05:25:28.874Z,12.87
2019-04-25T05:28:02.932Z,12.50
2019-04-25T05:30:33.643Z,11.87
2019-04-25T05:33:03.940Z,12.87
2019-04-25T05:35:33.728Z,13.23
2019-04-25T05:38:03.496Z,12.63
2019-04-25T05:40:34.797Z,12.93
2019-04-25T05:43:07.082Z,12.63
2019-04-25T05:45:36.746Z,13.57
2019-04-25T05:48:06.417Z,12.73
2019-04-25T05:50:37.085Z,12.60
2019-04-25T05:53:06.742Z,12.60
2019-04-25T05:55:37.419Z,12.27
2019-04-25T05:58:07.098Z,12.33
2019-04-25T06:00:36.822Z,12.20
2019-04-25T06:03:07.546Z,13.07
2019-04-25T06:05:37.216Z,13.87
2019-04-25T06:08:06.888Z,12.33
2019-04-25T06:10:41.180Z,12.17
2019-04-25T06:13:15.142Z,12.10
2019-04-25T06:15:46.448Z,12.70
2019-04-25T06:18:17.860Z,12.63
2019-04-25T06:20:47.518Z,11.80
2019-04-25T06:23:35.240Z,12.33
2019-04-25T06:26:19.007Z,11.20
2019-04-25T06:28:36.254Z,13.00
2019-04-25T06:31:10.174Z,11.67
2019-04-25T06:33:37.285Z,12.50
2019-04-25T06:36:06.959Z,12.00
2019-04-25T06:38:36.674Z,11.67
2019-04-25T06:41:06.303Z,11.80
2019-04-25T06:43:37.604Z,12.53
2019-04-25T06:46:15.032Z,11.33
2019-04-25T06:48:46.269Z,11.37
2019-04-25T06:51:15.872Z,11.60
2019-04-25T06:53:45.528Z,12.40
2019-04-25T06:56:15.357Z,10.97
2019-04-25T06:58:45.017Z,10.90
2019-04-25T07:01:14.908Z,11.27
2019-04-25T07:03:44.574Z,10.43
2019-04-25T07:06:14.731Z,10.37
2019-04-25T07:08:44.932Z,11.33
2019-04-25T07:11:14.757Z,12.13
2019-04-25T07:13:45.681Z,11.13
2019-04-25T07:16:15.585Z,11.27
2019-04-25T07:18:45.238Z,10.90
2019-04-25T07:21:14.909Z,11.07
2019-04-25T07:23:46.198Z,10.87
2019-04-25T07:26:18.098Z,10.43
2019-04-25T07:28:55.600Z,10.43
2019-04-25T07:31:26.898Z,10.23
2019-04-25T07:34:04.106Z,10.63
2019-04-25T07:36:35.153Z,10.47
2019-04-25T07:39:10.698Z,9.90
2019-04-25T07:41:39.582Z,10.63
2019-04-25T07:44:09.265Z,9.77
2019-04-25T07:46:39.950Z,10.17
2019-04-25T07:49:09.838Z,10.30
2019-04-25T07:51:39.482Z,9.07
2019-04-25T07:54:09.086Z,8.77
2019-04-25T07:56:38.687Z,8.27
2019-04-25T07:59:08.536Z,8.30
2019-04-25T08:01:39.110Z,8.63
2019-04-25T08:04:08.854Z,9.40
2019-04-25T08:06:38.641Z,8.67
2019-04-25T08:09:10.885Z,8.80
2019-04-25T08:11:41.002Z,9.27
2019-04-25T08:14:15.175Z,8.37
2019-04-25T08:16:53.793Z,9.27
2019-04-25T08:19:25.752Z,9.73
2019-04-25T08:21:56.946Z,8.70
2019-04-25T08:24:27.292Z,8.67
2019-04-25T08:26:57.032Z,9.43
2019-04-25T08:29:26.702Z,8.83
2019-04-25T08:31:56.347Z,9.40
2019-04-25T08:34:25.947Z,8.97
2019-04-25T08:36:55.548Z,9.93
2019-04-25T08:39:25.148Z,9.07
2019-04-25T08:41:54.817Z,8.43
2019-04-25T08:44:24.456Z,8.43
2019-04-25T08:46:54.620Z,9.30
2019-04-25T08:49:31.894Z,9.30
2019-04-25T08:52:01.616Z,8.77
2019-04-25T08:54:47.347Z,8.93
2019-04-25T08:57:17.466Z,8.87
2019-04-25T08:59:52.867Z,8.33
2019-04-25T09:02:27.020Z,8.67
2019-04-25T09:04:58.310Z,8.23
2019-04-25T09:07:27.962Z,7.97
2019-04-25T09:09:57.606Z,8.53
2019-04-25T09:12:27.283Z,8.87
2019-04-25T09:14:56.792Z,8.30
2019-04-25T09:17:26.404Z,8.40
2019-04-25T09:19:56.058Z,7.63
2019-04-25T09:22:25.630Z,9.40
2019-04-25T09:24:55.224Z,8.10
2019-04-25T09:27:24.952Z,8.60
2019-04-25T09:29:54.656Z,8.60
2019-04-25T09:32:24.380Z,8.20
2019-04-25T09:34:54.502Z,7.90
2019-04-25T09:37:26.125Z,7.53
2019-04-25T09:40:00.404Z,8.40
2019-04-25T09:42:30.072Z,7.63
2019-04-25T09:45:04.294Z,7.20
2019-04-25T09:47:35.589Z,7.17
2019-04-25T09:50:08.044Z,7.17
2019-04-25T09:52:37.834Z,7.70
2019-04-25T09:55:09.066Z,6.73
2019-04-25T09:57:58.352Z,6.87
2019-04-25T10:00:29.962Z,7.30
2019-04-25T10:02:59.808Z,7.40
2019-04-25T10:05:29.641Z,7.27
2019-04-25T10:07:59.282Z,6.97
2019-04-25T10:10:29.894Z,6.70
2019-04-25T10:12:59.464Z,7.20
2019-04-25T10:15:46.744Z,6.87
2019-04-25T10:18:17.410Z,7.13
2019-04-25T10:20:47.536Z,7.50
2019-04-25T10:23:18.552Z,7.90
2019-04-25T10:25:48.752Z,7.70
2019-04-25T10:28:18.477Z,7.23
2019-04-25T10:30:48.928Z,7.33
2019-04-25T10:33:21.515Z,7.50
2019-04-25T10:35:58.316Z,6.90
2019-04-25T10:38:24.196Z,7.27
2019-04-25T10:40:53.922Z,7.30
2019-04-25T10:43:24.047Z,7.13
2019-04-25T10:45:55.110Z,6.40
2019-04-25T10:48:24.933Z,6.83
2019-04-25T10:50:55.771Z,6.17
2019-04-25T10:53:25.468Z,6.33
2019-04-25T10:55:55.174Z,6.50
2019-04-25T10:58:24.917Z,6.67
2019-04-25T11:00:54.648Z,6.00
2019-04-25T11:03:29.080Z,5.83
2019-04-25T11:05:58.751Z,6.30
2019-04-25T11:08:28.430Z,5.67
2019-04-25T11:10:58.950Z,6.30
2019-04-25T11:13:28.711Z,6.43
2019-04-25T11:15:58.447Z,6.20
2019-04-25T11:18:28.165Z,6.27
2019-04-25T11:20:57.839Z,6.20
2019-04-25T11:23:27.506Z,6.47
2019-04-25T11:25:57.165Z,6.03
2019-04-25T11:28:26.752Z,6.30
2019-04-25T11:30:56.998Z,6.20
2019-04-25T11:33:27.270Z,6.80
2019-04-25T11:35:56.873Z,6.27
2019-04-25T11:38:30.763Z,6.30
2019-04-25T11:41:04.025Z,6.00
2019-04-25T11:43:33.823Z,6.10
2019-04-25T11:46:05.225Z,6.33
2019-04-25T11:48:34.883Z,6.83
2019-04-25T11:51:04.850Z,6.37
2019-04-25T11:53:34.516Z,7.03
2019-04-25T11:56:04.399Z,6.37
2019-04-25T11:58:34.042Z,7.20
2019-04-25T12:01:05.151Z,6.83
2019-04-25T12:03:34.913Z,6.53
2019-04-25T12:06:04.598Z,6.70
2019-04-25T12:08:34.310Z,6.67
2019-04-25T12:11:05.834Z,6.87
2019-04-25T12:13:35.355Z,6.77
2019-04-25T12:16:05.036Z,7.13
2019-04-25T12:18:35.469Z,6.70
2019-04-25T12:21:05.090Z,7.03
2019-04-25T12:23:35.209Z,6.90
2019-04-25T12:26:04.837Z,7.00
2019-04-25T12:28:34.484Z,7.50
2019-04-25T12:31:04.166Z,7.10
2019-04-25T12:33:33.747Z,7.00
2019-04-25T12:36:03.429Z,7.17
2019-04-25T12:38:35.121Z,7.17
2019-04-25T12:41:04.451Z,7.00
2019-04-25T12:43:35.950Z,7.03
2019-04-25T12:46:15.982Z,7.17
2019-04-25T12:48:46.039Z,7.30
2019-04-25T12:51:16.723Z,7.17
2019-04-25T12:53:46.595Z,7.40
2019-04-25T12:56:20.165Z,7.23
2019-04-25T12:58:48.600Z,7.10
2019-04-25T13:01:18.482Z,7.30
2019-04-25T13:03:49.102Z,7.10
2019-04-25T13:06:18.705Z,7.53
2019-04-25T13:08:49.372Z,7.90
2019-04-25T13:11:19.432Z,6.93
2019-04-25T13:13:49.168Z,7.63
2019-04-25T13:16:18.825Z,7.73
2019-04-25T13:18:48.438Z,7.90
2019-04-25T13:21:18.104Z,7.50
2019-04-25T13:23:47.772Z,7.73
2019-04-25T13:26:19.115Z,7.27
2019-04-25T13:28:50.422Z,7.47
2019-04-25T13:31:23.237Z,7.17
2019-04-25T13:34:07.576Z,7.07
2019-04-25T13:36:37.438Z,6.97
2019-04-25T13:39:09.815Z,7.27
2019-04-25T13:41:41.042Z,7.10
2019-04-25T13:44:10.757Z,7.47
2019-04-25T13:46:40.520Z,7.83
2019-04-25T13:49:10.696Z,7.57
2019-04-25T13:51:40.338Z,7.77
2019-04-25T13:54:10.092Z,7.50
2019-04-25T13:56:40.677Z,7.40
2019-04-25T13:59:11.485Z,6.60
2019-04-25T14:01:41.500Z,7.43
2019-04-25T14:04:11.640Z,7.77
2019-04-25T14:06:41.246Z,7.40
2019-04-25T14:09:13.302Z,6.80
2019-04-25T14:11:44.096Z,7.13
2019-04-25T14:14:13.876Z,7.43
2019-04-25T14:16:50.936Z,7.33
2019-04-25T14:19:24.327Z,6.97
2019-04-25T14:21:54.892Z,7.40
2019-04-25T14:24:28.088Z,7.60
2019-04-25T14:26:55.794Z,7.13
2019-04-25T14:29:26.122Z,7.13
2019-04-25T14:31:56.033Z,7.67
2019-04-25T14:34:26.596Z,7.73
2019-04-25T14:36:56.392Z,7.43
2019-04-25T14:39:26.282Z,7.40
2019-04-25T14:41:56.014Z,7.50
2019-04-25T14:44:27.277Z,7.20
2019-04-25T14:46:57.019Z,7.37
2019-04-25T14:49:28.253Z,7.33
2019-04-25T14:51:59.866Z,7.70
2019-04-25T14:54:36.028Z,7.87
2019-04-25T14:57:06.797Z,7.90
2019-04-25T14:59:36.530Z,7.87
2019-04-25T15:02:07.274Z,7.97
2019-04-25T15:04:36.932Z,7.83
2019-04-25T15:07:06.537Z,8.03
2019-04-25T15:09:36.209Z,8.30
2019-04-25T15:12:06.786Z,8.50
2019-04-25T15:14:36.435Z,8.30
2019-04-25T15:17:06.993Z,7.87
2019-04-25T15:19:36.664Z,7.97
2019-04-25T15:22:06.321Z,8.20
2019-04-25T15:24:35.997Z,7.77
2019-04-25T15:27:05.646Z,8.30
2019-04-25T15:29:35.305Z,8.60
2019-04-25T15:32:09.360Z,8.30
2019-04-25T15:34:40.664Z,9.00
2019-04-25T15:37:14.622Z,8.20
2019-04-25T15:39:50.076Z,8.80
2019-04-25T15:42:34.985Z,8.97
2019-04-25T15:45:24.042Z,8.07
2019-04-25T15:47:54.210Z,8.13
2019-04-25T15:50:24.181Z,8.63
2019-04-25T15:52:53.986Z,8.33
2019-04-25T15:55:24.702Z,8.20
2019-04-25T15:57:54.455Z,8.67
2019-04-25T16:00:28.630Z,8.43
2019-04-25T16:02:58.272Z,8.13
2019-04-25T16:05:28.399Z,8.47
2019-04-25T16:07:58.078Z,8.70
2019-04-25T16:10:28.411Z,8.50
2019-04-25T16:12:58.205Z,8.97
2019-04-25T16:15:28.991Z,8.73
2019-04-25T16:17:58.816Z,9.03
2019-04-25T16:20:29.510Z,9.33
2019-04-25T16:22:59.241Z,9.13
2019-04-25T16:25:29.899Z,9.20
2019-04-25T16:28:00.734Z,9.40
2019-04-25T16:30:32.429Z,9.70
2019-04-25T16:33:02.201Z,8.93
2019-04-25T16:35:33.424Z,9.77
2019-04-25T16:38:04.719Z,9.50
2019-04-25T16:40:36.231Z,9.37
2019-04-25T16:43:07.621Z,9.83
2019-04-25T16:45:38.891Z,10.03
2019-04-25T16:48:08.614Z,9.83
2019-04-25T16:50:38.280Z,10.40
2019-04-25T16:53:08.025Z,9.97
2019-04-25T16:55:38.755Z,10.03
2019-04-25T16:58:09.038Z,9.50
2019-04-25T17:00:43.294Z,9.73
2019-04-25T17:03:16.723Z,10.57
2019-04-25T17:05:46.356Z,9.53
2019-04-25T17:08:16.506Z,10.33
2019-04-25T17:10:46.109Z,10.03
2019-04-25T17:13:16.042Z,10.53
2019-04-25T17:15:50.050Z,10.27
2019-04-25T17:18:27.196Z,10.03
2019-04-25T17:21:04.997Z,10.30
2019-04-25T17:23:35.033Z,10.00
2019-04-25T17:26:05.385Z,10.63
2019-04-25T17:28:37.684Z,10.00
2019-04-25T17:31:08.916Z,10.07
2019-04-25T17:33:40.286Z,9.97
2019-04-25T17:36:11.789Z,11.20
2019-04-25T17:38:45.967Z,10.40
2019-04-25T17:41:15.707Z,10.50
2019-04-25T17:43:45.311Z,10.07
2019-04-25T17:46:16.738Z,9.77
2019-04-25T17:48:46.460Z,9.87
2019-04-25T17:51:16.042Z,11.00
2019-04-25T17:53:45.653Z,10.63
2019-04-25T17:56:15.392Z,10.30
2019-04-25T17:58:46.114Z,10.77
2019-04-25T18:01:17.474Z,10.60
2019-04-25T18:03:47.152Z,10.30
2019-04-25T18:06:16.903Z,10.77
2019-04-25T18:08:46.560Z,11.83
2019-04-25T18:11:16.146Z,10.67
2019-04-25T18:13:45.771Z,11.23
2019-04-25T18:16:16.999Z,11.57
2019-04-25T18:18:48.252Z,11.10
2019-04-25T18:21:17.981Z,11.57
2019-04-25T18:24:05.749Z,10.93
2019-04-25T18:26:37.127Z,11.97
2019-04-25T18:29:17.257Z,12.10
2019-04-25T18:31:46.929Z,12.10
2019-04-25T18:34:18.241Z,11.97
2019-04-25T18:36:49.489Z,12.40
2019-04-25T18:39:26.859Z,11.60
2019-04-25T18:42:10.217Z,11.77
2019-04-25T18:44:40.014Z,13.03
2019-04-25T18:47:09.731Z,12.27
2019-04-25T18:49:40.746Z,12.23
2019-04-25T18:52:13.532Z,12.57
2019-04-25T18:54:50.736Z,13.60
2019-04-25T18:57:24.852Z,12.50
2019-04-25T19:00:04.667Z,12.97
2019-04-25T19:02:40.552Z,11.40
2019-04-25T19:05:15.696Z,12.23
2019-04-25T19:07:45.436Z,12.63
2019-04-25T19:10:15.804Z,12.63
2019-04-25T19:12:45.475Z,12.27
2019-04-25T19:15:15.149Z,12.20
2019-04-25T19:17:45.271Z,13.17
2019-04-25T19:20:15.179Z,12.43
2019-04-25T19:22:45.755Z,11.93
2019-04-25T19:25:15.657Z,13.23
2019-04-25T19:27:46.457Z,13.63
2019-04-25T19:30:18.028Z,12.80
2019-04-25T19:32:47.754Z,12.87
2019-04-25T19:35:17.394Z,13.00
2019-04-25T19:37:47.157Z,13.10
2019-04-25T19:40:34.989Z,13.67
2019-04-25T19:43:06.279Z,14.07
2019-04-25T19:45:36.047Z,13.57
2019-04-25T19:48:05.652Z,13.83
2019-04-25T19:50:35.253Z,14.87
2019-04-25T19:53:04.922Z,14.27
2019-04-25T19:55:34.522Z,14.13
2019-04-25T19:58:04.423Z,14.73
2019-04-25T20:00:36.882Z,14.80
2019-04-25T20:03:10.062Z,14.40
2019-04-25T20:05:44.788Z,14.47
2019-04-25T20:08:21.918Z,15.13
2019-04-25T20:10:55.909Z,15.00
2019-04-25T20:13:25.610Z,14.53
2019-04-25T20:15:55.255Z,15.50
2019-04-25T20:18:24.883Z,15.43
2019-04-25T20:20:54.555Z,15.37
2019-04-25T20:23:24.226Z,15.60
2019-04-25T20:25:57.060Z,15.33
2019-04-25T20:28:25.046Z,15.20
2019-04-25T20:30:54.709Z,15.93
2019-04-25T20:33:24.409Z,16.13
2019-04-25T20:35:54.058Z,15.93
2019-04-25T20:38:23.819Z,16.57
2019-04-25T20:40:54.329Z,16.37
2019-04-25T20:43:24.020Z,15.87
2019-04-25T20:45:54.452Z,16.33
2019-04-25T20:48:24.148Z,17.00
2019-04-25T20:50:54.482Z,17.17
2019-04-25T20:53:24.132Z,16.53
2019-04-25T20:55:54.935Z,16.47
2019-04-25T20:58:24.682Z,17.80
2019-04-25T21:00:56.001Z,17.07
2019-04-25T21:03:25.703Z,16.47
2019-04-25T21:05:57.213Z,16.73
2019-04-25T21:08:26.930Z,16.47
2019-04-25T21:10:56.589Z,15.70
2019-04-25T21:13:27.896Z,17.20
2019-04-25T21:16:05.126Z,16.47
2019-04-25T21:18:41.952Z,16.73
2019-04-25T21:21:11.594Z,16.97
2019-04-25T21:23:41.210Z,17.03
2019-04-25T21:26:10.954Z,17.50
2019-04-25T21:28:40.548Z,17.47
2019-04-25T21:31:10.234Z,17.00
2019-04-25T21:33:39.950Z,18.23
2019-04-25T21:36:09.646Z,17.37
2019-04-25T21:38:39.490Z,19.03
2019-04-25T21:41:16.734Z,19.07
2019-04-25T21:43:48.368Z,17.17
2019-04-25T21:46:18.396Z,18.50
2019-04-25T21:48:48.482Z,18.27
2019-04-25T21:51:33.646Z,19.23
2019-04-25T21:54:03.755Z,18.77
2019-04-25T21:56:34.895Z,19.03
2019-04-25T21:59:04.561Z,18.30
2019-04-25T22:01:38.729Z,20.40
2019-04-25T22:04:08.766Z,20.57
2019-04-25T22:06:39.011Z,20.53
2019-04-25T22:09:11.650Z,20.27
2019-04-25T22:11:41.304Z,19.47
2019-04-25T22:14:12.233Z,19.90
2019-04-25T22:16:42.027Z,20.93
2019-04-25T22:19:12.140Z,20.27
2019-04-25T22:21:42.233Z,19.67
2019-04-25T22:24:15.149Z,19.70
2019-04-25T22:26:43.240Z,20.23
2019-04-25T22:29:13.443Z,19.83
2019-04-25T22:31:44.704Z,20.63
2019-04-25T22:34:16.073Z,20.20
2019-04-25T22:36:46.140Z,20.27
2019-04-25T22:39:15.845Z,20.20
2019-04-25T22:41:47.195Z,21.23
2019-04-25T22:44:19.154Z,20.53
2019-04-25T22:46:49.094Z,19.83
2019-04-25T22:49:18.773Z,19.17
2019-04-25T22:51:48.478Z,21.13
2019-04-25T22:54:18.534Z,21.47
2019-04-25T22:56:48.244Z,21.27
2019-04-25T22:59:18.394Z,22.37
2019-04-25T23:01:52.721Z,21.07
2019-04-25T23:04:32.843Z,22.30
2019-04-25T23:07:03.919Z,21.47
2019-04-25T23:09:35.293Z,23.47
2019-04-25T23:12:06.645Z,22.03
2019-04-25T23:14:36.683Z,22.53
2019-04-25T23:17:07.293Z,22.90
2019-04-25T23:19:37.072Z,22.83
2019-04-25T23:22:07.410Z,23.90
2019-04-25T23:24:41.679Z,23.73
2019-04-25T23:27:22.054Z,23.70
2019-04-25T23:29:51.818Z,24.63
2019-04-25T23:32:21.905Z,24.17
2019-04-25T23:34:51.599Z,24.80
2019-04-25T23:37:21.491Z,24.80
2019-04-25T23:39:51.259Z,24.40
2019-04-25T23:42:20.967Z,25.10
2019-04-25T23:44:50.779Z,24.70
2019-04-25T23:47:20.419Z,24.73
2019-04-25T23:49:50.119Z,26.67
2019-04-25T23:52:20.071Z,26.17
2019-04-25T23:54:49.816Z,26.23
2019-04-25T23:57:19.690Z,27.27
2019-04-25T23:59:49.401Z,27.50
